Time;durP1;ratioP1;P1;durP2;ratioP2;P2;SDS_P1;SDS_P2;PMS_P1;PMS_P2;Temp;Humidity;BMP_temperature;BMP_pressure;BME280_temperature;BME280_humidity;BME280_pressure;Samples;Min_cycle;Max_cycle;Signal;HPM_P1;HPM_P2
2023/03/13 00:01:36;;;;;;;18.58;4.13;;;;;;;8.15;100.00;100218.16;5072896;28;20045;-74
2023/03/13 00:04:02;;;;;;;19.40;4.13;;;;;;;8.15;100.00;100212.84;5072634;28;20037;-74
2023/03/13 00:06:32;;;;;;;11.68;3.70;;;;;;;8.17;100.00;100196.50;5072811;28;20116;-74
2023/03/13 00:08:59;;;;;;;19.90;4.47;;;;;;;8.17;100.00;100189.28;5073009;28;20041;-74
2023/03/13 00:11:26;;;;;;;13.85;3.65;;;;;;;8.17;100.00;100180.59;5072127;28;20049;-74
2023/03/13 00:13:58;;;;;;;17.25;3.78;;;;;;;8.17;100.00;100172.63;5073103;28;20441;-74
2023/03/13 00:16:24;;;;;;;13.02;4.05;;;;;;;8.18;100.00;100171.47;5072674;28;20049;-74
2023/03/13 00:18:52;;;;;;;16.23;4.20;;;;;;;8.19;100.00;100165.00;5072527;28;20041;-74
2023/03/13 00:21:21;;;;;;;13.07;4.40;;;;;;;8.20;100.00;100174.44;5072466;28;20048;-74
2023/03/13 00:23:48;;;;;;;15.20;3.88;;;;;;;8.20;100.00;100161.16;5071480;28;20056;-74
2023/03/13 00:26:18;;;;;;;14.07;3.75;;;;;;;8.20;100.00;100155.88;5070668;28;20132;-74
2023/03/13 00:28:47;;;;;;;14.82;4.13;;;;;;;8.19;100.00;100149.81;5072878;28;20476;-74
2023/03/13 00:31:17;;;;;;;10.80;3.45;;;;;;;8.19;100.00;100138.47;5071752;28;20494;-74
2023/03/13 00:33:46;;;;;;;18.08;3.97;;;;;;;8.18;100.00;100137.00;5071238;28;20572;-74
2023/03/13 00:36:16;;;;;;;15.68;3.65;;;;;;;8.17;100.00;100124.91;5070919;28;20045;-74
2023/03/13 00:38:44;;;;;;;9.02;3.13;;;;;;;8.15;100.00;100120.06;5072909;28;20605;-74
2023/03/13 00:41:33;;;;;;;12.68;3.60;;;;;;;8.15;100.00;100108.72;5072385;28;20045;-74
2023/03/13 00:44:00;;;;;;;18.00;4.55;;;;;;;8.14;100.00;100100.00;5071191;28;20057;-74
2023/03/13 00:46:28;;;;;;;11.85;3.30;;;;;;;8.13;100.00;100090.59;5069755;28;20071;-74
2023/03/13 00:48:55;;;;;;;17.17;3.53;;;;;;;8.12;100.00;100085.72;5072643;28;20041;-74
2023/03/13 00:51:23;;;;;;;13.80;4.45;;;;;;;8.11;100.00;100081.59;5071941;28;20076;-74
2023/03/13 00:53:50;;;;;;;15.73;3.72;;;;;;;8.11;100.00;100078.94;5071053;28;20045;-74
2023/03/13 00:56:18;;;;;;;12.35;4.22;;;;;;;8.10;100.00;100066.84;5070601;28;20103;-74
2023/03/13 00:58:46;;;;;;;16.23;4.20;;;;;;;8.09;100.00;100060.81;5072404;28;20119;-74
2023/03/13 01:01:19;;;;;;;17.00;4.32;;;;;;;8.10;100.00;100061.56;5071581;28;20591;-74
2023/03/13 01:03:52;;;;;;;9.68;3.38;;;;;;;8.09;100.00;100046.81;5070825;28;20060;-74
2023/03/13 01:06:21;;;;;;;9.75;3.63;;;;;;;8.09;100.00;100042.25;5071702;28;20049;-74
2023/03/13 01:08:49;;;;;;;13.48;3.90;;;;;;;8.09;100.00;100038.88;5072284;28;20103;-74
2023/03/13 01:11:21;;;;;;;12.27;3.40;;;;;;;8.10;100.00;100029.75;5071924;28;20048;-74
2023/03/13 01:13:49;;;;;;;16.45;4.10;;;;;;;8.11;100.00;100029.31;5071149;28;20057;-74
2023/03/13 01:16:19;;;;;;;13.82;4.00;;;;;;;8.11;100.00;100018.72;5069938;28;20045;-74
2023/03/13 01:18:48;;;;;;;8.18;3.78;;;;;;;8.11;100.00;100010.00;5072168;28;20527;-74
2023/03/13 01:21:18;;;;;;;12.07;3.35;;;;;;;8.11;100.00;100008.09;5070271;28;20130;-74
2023/03/13 01:23:46;;;;;;;13.23;3.83;;;;;;;8.12;100.00;100001.63;5070599;28;20053;-74
2023/03/13 01:26:13;;;;;;;11.23;3.30;;;;;;;8.13;100.00;100000.44;5071723;28;20099;-74
2023/03/13 01:28:40;;;;;;;10.38;3.25;;;;;;;8.15;100.00;99992.78;5071628;28;20037;-74
2023/03/13 01:31:17;;;;;;;11.30;3.50;;;;;;;8.17;100.00;99982.50;5070200;28;20051;-74
2023/03/13 01:33:45;;;;;;;11.45;3.60;;;;;;;8.19;100.00;99974.84;5071781;28;20103;-74
2023/03/13 01:36:15;;;;;;;10.50;3.28;;;;;;;8.21;100.00;99969.81;5069906;28;20119;-74
2023/03/13 01:38:42;;;;;;;9.55;3.15;;;;;;;8.23;100.00;99964.81;5072668;28;20486;-74
2023/03/13 01:41:11;;;;;;;8.30;3.15;;;;;;;8.25;100.00;99956.41;5073657;28;20048;-75
2023/03/13 01:43:38;;;;;;;10.38;3.13;;;;;;;8.28;100.00;99943.03;5073799;28;20509;-74
2023/03/13 01:46:04;;;;;;;11.32;3.70;;;;;;;8.32;100.00;99942.88;5073690;28;20052;-74
2023/03/13 01:49:16;;;;;;;5.55;2.72;;;;;;;8.33;100.00;99934.50;5070310;28;20049;-73
2023/03/13 01:52:21;;;;;;;4.78;2.58;;;;;;;8.40;100.00;99925.50;5051836;28;20054;-74
2023/03/13 01:55:11;;;;;;;9.90;3.53;;;;;;;8.42;100.00;99923.13;5052299;28;20061;-75
2023/03/13 01:57:43;;;;;;;8.07;3.25;;;;;;;8.43;100.00;99919.31;5052263;28;20050;-75
2023/03/13 02:00:15;;;;;;;3.55;2.67;;;;;;;8.46;100.00;99913.13;5051631;28;20499;-75
2023/03/13 02:02:47;;;;;;;5.63;2.72;;;;;;;8.50;100.00;99907.66;5052332;28;20096;-75
2023/03/13 02:05:16;;;;;;;6.65;2.92;;;;;;;8.53;100.00;99896.91;5035650;28;20053;-75
2023/03/13 02:07:54;;;;;;;6.50;3.37;;;;;;;8.55;100.00;99889.22;5035587;28;20069;-75
2023/03/13 02:10:22;;;;;;;7.18;3.00;;;;;;;8.57;100.00;99886.13;5035393;28;20053;-74
2023/03/13 02:12:49;;;;;;;7.85;3.15;;;;;;;8.58;100.00;99863.72;5035371;28;20553;-75
2023/03/13 02:15:21;;;;;;;6.13;2.78;;;;;;;8.61;100.00;99857.53;5035236;28;20053;-75
2023/03/13 02:17:49;;;;;;;4.95;3.08;;;;;;;8.64;100.00;99848.69;5036035;28;20128;-75
2023/03/13 02:20:21;;;;;;;10.43;3.90;;;;;;;8.66;100.00;99846.31;5035192;28;20101;-75
2023/03/13 02:22:58;;;;;;;5.82;3.42;;;;;;;8.67;100.00;99840.56;5035520;28;20538;-75
2023/03/13 02:25:45;;;;;;;5.00;3.60;;;;;;;8.69;100.00;99832.16;5035347;28;20049;-75
2023/03/13 02:28:22;;;;;;;5.75;3.60;;;;;;;8.73;100.00;99827.44;5057068;28;20498;-74
2023/03/13 02:30:53;;;;;;;7.30;3.53;;;;;;;8.75;100.00;99821.69;5073530;28;20091;-75
2023/03/13 02:33:24;;;;;;;8.95;4.78;;;;;;;8.79;100.00;99819.59;5072728;28;20055;-75
2023/03/13 02:35:52;;;;;;;9.32;3.83;;;;;;;8.79;100.00;99817.69;5072975;28;20049;-75
2023/03/13 02:38:23;;;;;;;9.38;4.45;;;;;;;8.83;100.00;99812.91;5074134;28;20530;-75
2023/03/13 02:40:52;;;;;;;8.27;4.18;;;;;;;8.85;100.00;99815.88;5074789;28;20111;-75
2023/03/13 02:43:29;;;;;;;6.32;4.13;;;;;;;8.86;100.00;99806.72;5071899;28;20092;-75
2023/03/13 02:46:18;;;;;;;6.90;4.38;;;;;;;8.91;100.00;99805.38;5073371;28;20080;-75
2023/03/13 02:48:50;;;;;;;6.65;4.25;;;;;;;8.95;100.00;99809.34;5073129;28;20052;-74
2023/03/13 02:51:21;;;;;;;5.18;4.78;;;;;;;8.99;100.00;99801.22;5074396;28;20033;-75
2023/03/13 02:53:49;;;;;;;11.25;4.82;;;;;;;9.05;100.00;99796.03;5073261;28;20497;-75
2023/03/13 02:56:20;;;;;;;8.80;4.53;;;;;;;9.09;100.00;99789.38;5072306;28;20049;-75
2023/03/13 02:58:47;;;;;;;10.00;5.57;;;;;;;9.13;100.00;99781.22;5073072;28;20056;-75
2023/03/13 03:01:18;;;;;;;;;;;;;;;9.16;100.00;99791.69;5073105;28;20260;-75
2023/03/13 03:03:45;;;;;;;6.75;5.00;;;;;;;9.19;100.00;99796.09;5073074;28;19928;-75
2023/03/13 03:06:12;;;;;;;16.17;6.38;;;;;;;9.22;100.00;99797.81;5072395;28;20554;-74
2023/03/13 03:08:40;;;;;;;12.57;5.78;;;;;;;9.29;100.00;99794.81;5072300;28;20049;-75
2023/03/13 03:11:07;;;;;;;12.95;5.97;;;;;;;9.35;100.00;99793.03;5072085;28;20049;-75
2023/03/13 03:13:34;;;;;;;8.38;6.00;;;;;;;9.40;100.00;99786.34;5055736;28;20053;-75
2023/03/13 03:16:14;;;;;;;6.78;6.03;;;;;;;9.45;100.00;99791.03;5072664;28;20056;-75
2023/03/13 03:18:40;;;;;;;8.80;6.40;;;;;;;9.50;100.00;99793.06;5072474;28;20572;-75
2023/03/13 03:21:07;;;;;;;10.25;7.07;;;;;;;9.54;100.00;99788.31;5073679;28;20049;-75
2023/03/13 03:23:37;;;;;;;8.43;6.20;;;;;;;9.57;100.00;99784.75;5072258;28;20073;-75
2023/03/13 03:26:05;;;;;;;9.25;6.50;;;;;;;9.62;100.00;99788.69;5071968;28;20049;-75
2023/03/13 03:28:32;;;;;;;9.45;6.55;;;;;;;9.65;100.00;99777.88;5072128;28;20049;-75
2023/03/13 03:31:11;;;;;;;9.45;7.05;;;;;;;9.69;100.00;99781.09;5072358;28;20512;-75
2023/03/13 03:33:39;;;;;;;9.25;7.38;;;;;;;9.73;100.00;99780.19;5072353;28;20104;-75
2023/03/13 03:36:12;;;;;;;10.60;7.63;;;;;;;9.75;100.00;99769.84;5072551;28;20136;-75
2023/03/13 03:38:40;;;;;;;10.32;7.53;;;;;;;9.78;100.00;99767.00;5072019;28;20049;-75
2023/03/13 03:41:09;;;;;;;12.38;7.00;;;;;;;9.82;100.00;99762.25;5071413;28;20529;-75
2023/03/13 03:43:36;;;;;;;8.80;6.85;;;;;;;9.86;100.00;99767.38;5073066;28;20044;-75
2023/03/13 03:46:05;;;;;;;14.23;6.45;;;;;;;9.90;100.00;99773.25;5072014;28;20060;-75
2023/03/13 03:48:32;;;;;;;7.95;6.65;;;;;;;9.95;100.00;99770.69;5071816;28;20041;-75
2023/03/13 03:51:00;;;;;;;6.93;6.05;;;;;;;9.98;100.00;99772.44;5072192;28;20049;-75
2023/03/13 03:53:27;;;;;;;7.00;6.20;;;;;;;10.01;100.00;99763.53;5071476;28;20049;-75
2023/03/13 03:55:54;;;;;;;7.78;6.10;;;;;;;10.03;100.00;99755.81;5071520;28;20147;-75
2023/03/13 03:58:21;;;;;;;9.23;6.10;;;;;;;10.07;100.00;99750.31;5071244;28;20051;-75
2023/03/13 04:01:04;;;;;;;8.80;6.05;;;;;;;10.09;100.00;99747.19;5071114;28;20048;-75
2023/03/13 04:03:32;;;;;;;6.95;5.25;;;;;;;10.12;100.00;99752.34;5072743;28;20076;-75
2023/03/13 04:05:59;;;;;;;7.93;5.20;;;;;;;10.15;100.00;99737.38;5071921;28;20135;-75
2023/03/13 04:08:25;;;;;;;6.30;5.00;;;;;;;10.17;100.00;99735.00;5072621;28;20049;-75
2023/03/13 04:10:52;;;;;;;7.45;4.95;;;;;;;10.19;100.00;99730.72;5071184;28;20045;-75
2023/03/13 04:13:21;;;;;;;7.45;4.95;;;;;;;10.22;100.00;99740.44;5070984;28;20119;-75
2023/03/13 04:15:48;;;;;;;8.15;4.35;;;;;;;10.24;100.00;99724.03;5071691;28;20136;-75
2023/03/13 04:18:17;;;;;;;5.07;4.57;;;;;;;10.28;100.00;99729.91;5071668;28;20037;-75
2023/03/13 04:20:44;;;;;;;9.80;5.18;;;;;;;10.30;100.00;99730.16;5071517;28;20076;-75
2023/03/13 04:23:11;;;;;;;6.57;4.35;;;;;;;10.31;100.00;99727.03;5071071;28;20648;-75
2023/03/13 04:25:38;;;;;;;7.05;4.50;;;;;;;10.34;100.00;99718.16;5070830;28;20485;-75
2023/03/13 04:28:08;;;;;;;4.93;4.13;;;;;;;10.35;100.00;99718.88;5071461;28;20044;-75
2023/03/13 04:30:39;;;;;;;7.53;4.85;;;;;;;10.40;100.00;99712.19;5071271;28;20049;-75
2023/03/13 04:33:24;;;;;;;6.35;4.43;;;;;;;10.41;100.00;99709.03;5071062;28;20524;-75
2023/03/13 04:36:05;;;;;;;6.30;5.28;;;;;;;10.43;100.00;99703.97;5071135;28;20053;-75
2023/03/13 04:39:06;;;;;;;9.45;4.53;;;;;;;10.44;100.00;99692.13;5049307;28;20125;-75
2023/03/13 04:41:54;;;;;;;5.60;5.00;;;;;;;10.44;100.00;99691.41;5050128;28;20053;-75
2023/03/13 04:44:41;;;;;;;9.50;4.53;;;;;;;10.47;100.00;99677.19;5038423;28;20132;-75
2023/03/13 04:47:29;;;;;;;8.77;4.85;;;;;;;10.50;100.00;99669.00;5049234;28;20204;-75
2023/03/13 04:50:21;;;;;;;8.38;5.28;;;;;;;10.51;100.00;99683.03;5025932;28;20053;-75
2023/03/13 04:53:12;;;;;;;5.22;4.82;;;;;;;10.54;100.00;99682.13;5049114;28;20053;-75
2023/03/13 04:55:49;;;;;;;6.15;4.75;;;;;;;10.56;100.00;99669.09;5033281;28;20053;-75
2023/03/13 04:58:48;;;;;;;7.28;4.47;;;;;;;10.59;100.00;99679.53;5037261;28;20097;-75
2023/03/13 05:01:38;;;;;;;4.82;4.40;;;;;;;10.60;100.00;99673.00;5049438;28;20428;-75
2023/03/13 05:04:14;;;;;;;6.03;4.28;;;;;;;10.62;100.00;99667.22;5032997;28;20092;-75
2023/03/13 05:06:59;;;;;;;7.10;4.00;;;;;;;10.65;100.00;99663.63;5048478;28;20050;-75
2023/03/13 05:09:47;;;;;;;4.22;3.92;;;;;;;10.67;100.00;99669.97;5033256;28;20045;-75
2023/03/13 05:12:33;;;;;;;7.70;4.28;;;;;;;10.69;100.00;99672.88;5053252;28;20498;-75
2023/03/13 05:15:09;;;;;;;7.45;4.35;;;;;;;10.71;100.00;99669.03;5070613;28;20056;-75
2023/03/13 05:17:58;;;;;;;3.72;3.45;;;;;;;10.72;100.00;99667.84;5072312;28;20124;-75
2023/03/13 05:20:43;;;;;;;5.18;3.47;;;;;;;10.73;100.00;99664.72;5072625;28;20049;-76
2023/03/13 05:23:30;;;;;;;4.55;3.53;;;;;;;10.75;100.00;99672.22;5056030;28;20099;-75
2023/03/13 05:26:06;;;;;;;4.35;3.30;;;;;;;10.78;100.00;99664.06;5071774;28;20041;-75
2023/03/13 05:28:51;;;;;;;7.38;3.60;;;;;;;10.81;100.00;99663.09;5070326;28;20049;-76
2023/03/13 05:31:18;;;;;;;3.95;3.30;;;;;;;10.84;100.00;99654.16;5071698;28;20502;-75
2023/03/13 05:34:10;;;;;;;6.85;3.63;;;;;;;10.87;100.00;99671.88;5069863;28;20056;-75
2023/03/13 05:36:53;;;;;;;8.55;3.28;;;;;;;10.89;100.00;99650.84;5069756;28;20084;-75
2023/03/13 05:39:48;;;;;;;8.52;3.08;;;;;;;10.92;100.00;99660.56;5072013;28;20037;-76
2023/03/13 05:42:53;;;;;;;7.28;3.63;;;;;;;10.95;100.00;99651.66;5057752;28;20124;-74
2023/03/13 05:45:39;;;;;;;6.50;3.03;;;;;;;10.97;100.00;99675.16;5070152;28;20513;-75
2023/03/13 05:48:23;;;;;;;8.95;3.10;;;;;;;10.98;100.00;99660.63;5070325;28;20128;-76
2023/03/13 05:51:12;;;;;;;7.53;2.97;;;;;;;10.98;100.00;99660.63;5069256;28;20052;-75
2023/03/13 05:53:58;;;;;;;12.10;3.63;;;;;;;11.02;100.00;99645.91;5072639;28;20524;-75
2023/03/13 05:56:56;;;;;;;4.90;2.97;;;;;;;11.07;100.00;99641.13;5070937;28;20053;-75
2023/03/13 05:59:41;;;;;;;6.40;3.08;;;;;;;11.06;100.00;99643.06;5069506;28;20092;-75
2023/03/13 06:02:25;;;;;;;7.65;3.10;;;;;;;11.10;100.00;99638.25;5070332;28;20061;-75
2023/03/13 06:04:52;;;;;;;5.65;2.78;;;;;;;11.15;100.00;99639.50;5069370;28;20138;-75
2023/03/13 06:07:19;;;;;;;3.30;2.70;;;;;;;11.14;100.00;99620.13;5069648;28;20528;-75
2023/03/13 06:09:46;;;;;;;3.45;2.80;;;;;;;11.19;100.00;99621.41;5069436;28;20085;-75
2023/03/13 06:12:13;;;;;;;10.13;3.05;;;;;;;11.17;100.00;99626.47;5069615;28;20536;-75
2023/03/13 06:14:39;;;;;;;5.97;3.38;;;;;;;11.15;100.00;99621.59;5053893;28;20130;-76
2023/03/13 06:17:28;;;;;;;10.07;3.17;;;;;;;11.17;100.00;99621.13;5070229;28;20135;-77
2023/03/13 06:19:54;;;;;;;4.20;2.90;;;;;;;11.17;100.00;99613.13;5070170;28;20049;-77
2023/03/13 06:22:21;;;;;;;4.85;3.30;;;;;;;11.19;100.00;99619.47;5071436;28;20049;-77
2023/03/13 06:24:48;;;;;;;7.00;3.00;;;;;;;11.19;100.00;99605.41;5074470;28;20041;-77
2023/03/13 06:27:17;;;;;;;4.57;3.20;;;;;;;11.23;100.00;99613.91;5075115;28;20060;-77
2023/03/13 06:29:44;;;;;;;3.35;2.70;;;;;;;11.22;100.00;99615.84;5075251;28;20041;-77
2023/03/13 06:32:10;;;;;;;6.80;3.45;;;;;;;11.26;100.00;99620.94;5074946;28;20076;-77
2023/03/13 06:34:37;;;;;;;4.25;2.72;;;;;;;11.28;100.00;99619.28;5074434;28;20053;-76
2023/03/13 06:37:04;;;;;;;4.18;3.15;;;;;;;11.31;100.00;99618.34;5075263;28;20045;-76
2023/03/13 06:39:30;;;;;;;3.58;2.60;;;;;;;11.33;100.00;99625.88;5073921;28;20041;-77
2023/03/13 06:41:57;;;;;;;6.47;3.03;;;;;;;11.36;100.00;99627.59;5074997;28;20053;-76
2023/03/13 06:44:24;;;;;;;10.00;3.17;;;;;;;11.37;100.00;99618.41;5073813;28;20045;-77
2023/03/13 06:46:50;;;;;;;3.95;2.60;;;;;;;11.36;100.00;99614.28;5073961;28;20045;-76
2023/03/13 06:49:17;;;;;;;7.78;3.10;;;;;;;11.41;100.00;99623.53;5074524;28;20498;-76
2023/03/13 06:51:43;;;;;;;8.48;3.00;;;;;;;11.42;100.00;99625.72;5073666;28;20119;-78
2023/03/13 06:54:10;;;;;;;8.88;2.72;;;;;;;11.47;100.00;99618.97;5074783;28;20045;-78
2023/03/13 06:56:36;;;;;;;6.05;3.45;;;;;;;11.52;100.00;99619.03;5075269;28;20060;-77
2023/03/13 06:59:03;;;;;;;6.57;3.10;;;;;;;11.54;100.00;99631.88;5075373;28;20047;-76
2023/03/13 07:01:29;;;;;;;6.05;3.08;;;;;;;11.52;100.00;99635.00;5074721;28;20064;-76
2023/03/13 07:03:56;;;;;;;6.82;2.80;;;;;;;11.56;100.00;99632.13;5074409;28;20072;-75
2023/03/13 07:06:22;;;;;;;8.63;2.78;;;;;;;11.58;100.00;99614.47;5074748;28;20037;-77
2023/03/13 07:08:49;;;;;;;8.32;3.17;;;;;;;11.59;100.00;99629.25;5074928;28;20556;-76
2023/03/13 07:11:15;;;;;;;7.35;2.60;;;;;;;11.60;100.00;99628.03;5074505;28;20045;-77
2023/03/13 07:13:42;;;;;;;6.75;2.67;;;;;;;11.60;100.00;99625.38;5074586;28;20486;-76
2023/03/13 07:16:12;;;;;;;5.30;3.20;;;;;;;11.59;100.00;99629.25;5074474;28;20041;-76
2023/03/13 07:18:43;;;;;;;8.00;3.00;;;;;;;11.59;100.00;99641.84;5072713;28;20088;-76
2023/03/13 07:21:10;;;;;;;7.57;2.63;;;;;;;11.56;100.00;99622.22;5074612;28;20053;-76
2023/03/13 07:23:38;;;;;;;6.22;2.80;;;;;;;11.54;100.00;99640.59;5074415;28;20155;-75
2023/03/13 07:26:08;;;;;;;4.03;2.33;;;;;;;11.51;100.00;99644.22;5074741;28;20037;-77
2023/03/13 07:28:35;;;;;;;7.22;3.15;;;;;;;11.51;100.00;99630.16;5073041;28;20050;-79
2023/03/13 07:31:15;;;;;;;7.65;3.38;;;;;;;11.52;100.00;99652.94;5074343;28;20540;-78
2023/03/13 07:33:43;;;;;;;5.30;3.00;;;;;;;11.50;100.00;99645.41;5074146;28;20083;-75
2023/03/13 07:36:11;;;;;;;8.32;3.60;;;;;;;11.49;100.00;99651.94;5071623;28;20053;-76
2023/03/13 07:38:38;;;;;;;5.50;2.80;;;;;;;11.46;100.00;99652.88;5074448;28;20502;-76
2023/03/13 07:41:05;;;;;;;4.50;3.20;;;;;;;11.43;100.00;99651.16;5074246;28;20053;-77
2023/03/13 07:43:31;;;;;;;8.80;3.20;;;;;;;11.40;100.00;99641.44;5073667;28;20434;-77
2023/03/13 07:46:03;;;;;;;8.02;3.17;;;;;;;11.36;100.00;99662.22;5074412;28;20490;-76
2023/03/13 07:48:36;;;;;;;4.75;3.15;;;;;;;11.33;100.00;99641.84;5073824;28;20041;-76
2023/03/13 07:51:05;;;;;;;12.05;3.83;;;;;;;11.29;100.00;99649.31;5074093;28;20041;-76
2023/03/13 07:53:32;;;;;;;15.05;3.30;;;;;;;11.29;100.00;99652.00;5073555;28;20049;-76
2023/03/13 07:56:00;;;;;;;6.28;2.80;;;;;;;11.27;100.00;99667.72;5073953;28;20041;-75
2023/03/13 07:58:30;;;;;;;8.05;2.60;;;;;;;11.27;100.00;99657.78;5073327;28;20524;-75
2023/03/13 08:00:57;;;;;;;5.63;3.05;;;;;;;11.30;100.00;99666.78;5072900;28;20056;-76
2023/03/13 08:03:25;;;;;;;6.97;3.10;;;;;;;11.30;100.00;99658.78;5072414;28;20056;-77
2023/03/13 08:05:59;;;;;;;11.77;3.60;;;;;;;11.30;100.00;99664.09;5073787;28;20502;-77
2023/03/13 08:08:27;;;;;;;7.15;3.13;;;;;;;11.34;100.00;99665.38;5072138;28;20045;-77
2023/03/13 08:11:09;;;;;;;6.80;3.00;;;;;;;11.39;100.00;99657.91;5073609;28;20075;-77
2023/03/13 08:13:36;;;;;;;4.05;2.40;;;;;;;11.38;100.00;99662.50;5073360;28;20045;-77
2023/03/13 08:16:07;;;;;;;7.35;3.30;;;;;;;11.38;100.00;99667.09;5072080;28;20490;-76
2023/03/13 08:18:37;;;;;;;6.05;3.10;;;;;;;11.35;100.00;99648.19;5072706;28;20483;-76
2023/03/13 08:21:06;;;;;;;5.07;3.40;;;;;;;11.36;100.00;99640.91;5073323;28;20075;-77
2023/03/13 08:23:33;;;;;;;7.72;3.20;;;;;;;11.31;100.00;99633.59;5073173;28;20490;-77
2023/03/13 08:26:02;;;;;;;8.68;2.90;;;;;;;11.30;100.00;99640.13;5071942;28;20060;-78
2023/03/13 08:28:29;;;;;;;7.38;3.00;;;;;;;11.26;100.00;99624.34;5071786;28;20528;-76
2023/03/13 08:30:55;;;;;;;4.47;3.55;;;;;;;11.25;100.00;99646.88;5071410;28;20049;-76
2023/03/13 08:33:22;;;;;;;4.88;3.20;;;;;;;11.27;100.00;99635.72;5073200;28;20136;-76
2023/03/13 08:35:48;;;;;;;4.85;3.30;;;;;;;11.30;100.00;99624.88;5071767;28;20057;-78
2023/03/13 08:38:15;;;;;;;6.25;3.60;;;;;;;11.36;100.00;99624.94;5071542;28;20144;-77
2023/03/13 08:40:41;;;;;;;5.30;3.28;;;;;;;11.36;100.00;99630.25;5071632;28;20099;-78
2023/03/13 08:43:08;;;;;;;6.07;3.15;;;;;;;11.40;100.00;99622.78;5073284;28;20107;-77
2023/03/13 08:45:35;;;;;;;3.47;2.80;;;;;;;11.45;100.00;99606.13;5072884;28;20053;-77
2023/03/13 08:48:01;;;;;;;6.28;2.88;;;;;;;11.47;100.00;99618.97;5072874;28;20485;-77
2023/03/13 08:50:28;;;;;;;5.18;2.97;;;;;;;11.49;100.00;99609.31;5073219;28;20045;-77
2023/03/13 08:52:54;;;;;;;4.90;2.97;;;;;;;11.51;100.00;99600.84;5073300;28;20090;-77
2023/03/13 08:55:20;;;;;;;4.35;2.53;;;;;;;11.52;100.00;99594.31;5072970;28;20131;-77
2023/03/13 08:57:47;;;;;;;2.80;2.50;;;;;;;11.56;100.00;99584.91;5071760;28;20069;-78
2023/03/13 09:00:14;;;;;;;3.60;2.92;;;;;;;11.60;100.00;99587.31;5072198;28;20041;-76
2023/03/13 09:02:40;;;;;;;6.90;2.90;;;;;;;11.63;100.00;99586.38;5072796;28;20059;-77
2023/03/13 09:05:07;;;;;;;5.55;2.70;;;;;;;11.64;100.00;99593.91;5072864;28;20045;-77
2023/03/13 09:07:34;;;;;;;7.93;2.80;;;;;;;11.68;100.00;99588.34;5073614;28;20049;-77
2023/03/13 09:10:01;;;;;;;5.47;2.70;;;;;;;11.67;100.00;99600.94;5074434;28;20479;-77
2023/03/13 09:12:29;;;;;;;10.80;3.03;;;;;;;11.68;100.00;99605.06;5073225;28;20053;-77
2023/03/13 09:14:57;;;;;;;7.07;2.63;;;;;;;11.78;100.00;99587.00;5071559;28;20049;-77
2023/03/13 09:17:23;;;;;;;3.03;2.25;;;;;;;11.82;100.00;99598.19;5073322;28;20045;-78
2023/03/13 09:19:50;;;;;;;4.90;2.13;;;;;;;11.97;100.00;99590.03;5070769;28;20075;-77
2023/03/13 09:22:26;;;;;;;3.50;2.20;;;;;;;12.32;100.00;99563.78;5072219;28;20045;-78
2023/03/13 09:24:53;;;;;;;5.28;2.28;;;;;;;12.58;100.00;99576.97;5072317;28;20048;-78
2023/03/13 09:27:19;;;;;;;4.38;2.28;;;;;;;12.71;100.00;99573.13;5071983;28;20045;-78
2023/03/13 09:29:45;;;;;;;6.85;2.38;;;;;;;12.83;100.00;99571.94;5078962;28;20583;-77
2023/03/13 09:32:12;;;;;;;2.83;1.92;;;;;;;12.92;100.00;99559.09;5081097;28;20065;-77
2023/03/13 09:34:38;;;;;;;5.03;2.00;;;;;;;13.12;100.00;99565.44;5072787;28;20454;-77
2023/03/13 09:37:05;;;;;;;5.25;1.90;;;;;;;13.23;97.98;99565.44;5071170;28;20917;-78
2023/03/13 09:39:32;;;;;;;2.53;1.90;;;;;;;13.22;96.84;99567.41;5075148;28;20053;-78
2023/03/13 09:42:01;;;;;;;6.95;2.17;;;;;;;13.18;96.08;99571.53;5084158;28;20049;-78
2023/03/13 09:44:32;;;;;;;3.22;1.85;;;;;;;13.15;95.44;99543.81;5072285;28;20052;-78
2023/03/13 09:47:04;;;;;;;4.80;2.10;;;;;;;13.15;95.25;99559.84;5072375;28;20044;-77
2023/03/13 09:49:53;;;;;;;4.03;1.48;;;;;;;13.16;93.85;99541.91;5073664;28;20037;-78
2023/03/13 09:52:25;;;;;;;7.10;2.00;;;;;;;13.14;94.68;99544.31;5073306;28;20076;-78
2023/03/13 09:55:01;;;;;;;3.65;1.88;;;;;;;13.14;94.07;99536.28;5072257;28;20437;-76
2023/03/13 09:57:39;;;;;;;3.97;1.55;;;;;;;13.24;93.70;99530.22;5071723;28;20069;-77
2023/03/13 10:00:16;;;;;;;2.45;1.88;;;;;;;13.38;93.17;99519.78;5075567;28;20049;-78
2023/03/13 10:02:46;;;;;;;10.38;2.83;;;;;;;13.46;92.63;99510.78;5077129;28;20049;-79
2023/03/13 10:05:19;;;;;;;6.28;1.90;;;;;;;13.56;91.74;99517.34;5086130;28;20558;-77
2023/03/13 10:07:45;;;;;;;4.82;3.05;;;;;;;13.68;90.77;99507.31;5077172;28;20065;-77
2023/03/13 10:10:18;;;;;;;6.75;1.90;;;;;;;13.86;89.73;99488.09;5075041;28;20490;-77
2023/03/13 10:12:47;;;;;;;3.40;1.65;;;;;;;14.13;88.68;99505.25;5075024;28;20052;-77
2023/03/13 10:15:38;;;;;;;6.97;1.80;;;;;;;14.43;89.06;99497.34;5073716;28;20068;-77
2023/03/13 10:18:14;;;;;;;2.42;1.50;;;;;;;14.45;85.70;99476.16;5060032;28;20045;-77
2023/03/13 10:20:42;;;;;;;2.90;1.42;;;;;;;14.30;85.79;99495.19;5075355;28;20052;-78
2023/03/13 10:23:18;;;;;;;3.08;1.75;;;;;;;14.29;85.40;99493.00;5074995;28;20106;-79
2023/03/13 10:25:45;;;;;;;1.80;1.33;;;;;;;14.38;84.93;99500.75;5074609;28;20044;-80
2023/03/13 10:28:14;;;;;;;3.55;1.55;;;;;;;14.36;84.03;99484.47;5073804;28;20048;-77
2023/03/13 10:30:46;;;;;;;91.63;62.92;;;;;;;14.55;83.92;99488.03;5073600;28;20084;-76
2023/03/13 10:33:19;;;;;;;4.68;3.83;;;;;;;14.60;82.56;99476.53;5073396;28;20051;-77
2023/03/13 10:35:59;;;;;;;4.40;2.10;;;;;;;14.49;82.91;99489.28;5072575;28;20592;-78
2023/03/13 10:38:25;;;;;;;2.88;1.52;;;;;;;14.40;81.48;99489.53;5073509;28;20144;-77
2023/03/13 10:41:20;;;;;;;3.33;1.60;;;;;;;14.34;83.40;99503.69;5073947;28;20088;-77
2023/03/13 10:43:59;;;;;;;7.50;1.70;;;;;;;14.47;83.39;99484.41;5072723;28;20123;-77
2023/03/13 10:46:32;;;;;;;3.08;1.80;;;;;;;14.47;82.06;99500.47;5073443;28;20504;-77
2023/03/13 10:49:03;;;;;;;3.42;1.70;;;;;;;14.42;79.88;99489.78;5074913;28;20045;-77
2023/03/13 10:51:43;;;;;;;;;;;;;;;14.42;84.70;99485.16;5075708;28;20458;-77
2023/03/13 10:54:31;;;;;;;5.72;1.77;;;;;;;14.42;83.07;99493.19;5056469;28;19929;-77
2023/03/13 10:57:09;;;;;;;5.95;2.17;;;;;;;14.43;82.03;99478.59;5073692;28;20052;-78
2023/03/13 10:59:43;;;;;;;3.63;1.80;;;;;;;14.51;80.96;99479.53;5074665;28;20572;-78
2023/03/13 11:02:22;;;;;;;4.70;1.20;;;;;;;14.51;80.41;99474.16;5074247;28;20045;-77
2023/03/13 11:04:52;;;;;;;6.38;1.80;;;;;;;14.64;78.85;99481.63;5074886;28;20112;-78
2023/03/13 11:07:20;;;;;;;4.78;1.50;;;;;;;14.72;76.26;99463.09;5074225;28;20041;-78
2023/03/13 11:10:01;;;;;;;6.65;1.75;;;;;;;14.80;77.52;99466.66;5073688;28;20056;-78
2023/03/13 11:12:32;;;;;;;3.63;1.48;;;;;;;15.05;76.17;99476.22;5058950;28;20052;-78
2023/03/13 11:15:00;;;;;;;;;;;;;;;15.18;80.60;99454.91;5073688;28;20123;-78
2023/03/13 11:17:36;;;;;;;4.45;1.50;;;;;;;15.26;72.59;99441.66;5072678;28;19925;-78
2023/03/13 11:20:24;;;;;;;3.38;1.50;;;;;;;15.16;73.11;99429.84;5072956;28;20498;-79
2023/03/13 11:23:09;;;;;;;3.08;1.50;;;;;;;15.15;71.93;99420.34;5075796;28;20049;-79
2023/03/13 11:25:46;;;;;;;3.67;1.77;;;;;;;15.10;72.10;99437.19;5073729;28;20045;-79
2023/03/13 11:28:28;;;;;;;6.85;1.60;;;;;;;15.31;72.77;99432.84;5073796;28;20041;-79
2023/03/13 11:31:10;;;;;;;7.95;2.80;;;;;;;15.55;71.57;99435.53;5074114;28;20053;-81
2023/03/13 11:33:39;;;;;;;;;;;;;;;15.71;74.75;99427.81;5074543;28;20084;-80
2023/03/13 11:36:42;;;;;;;5.53;1.52;;;;;;;15.77;69.93;99425.78;5073907;28;19928;-80
2023/03/13 11:39:44;;;;;;;2.47;1.48;;;;;;;15.75;70.35;99439.69;5062486;28;20057;-80
2023/03/13 11:42:47;;;;;;;2.92;1.45;;;;;;;15.70;69.51;99424.41;5073361;28;20107;-77
2023/03/13 11:45:32;;;;;;;1.67;1.00;;;;;;;15.92;69.71;99432.19;5073700;28;20500;-79
2023/03/13 11:48:08;;;;;;;2.67;1.42;;;;;;;16.10;69.31;99419.97;5072430;28;20498;-79
2023/03/13 11:50:54;;;;;;;8.38;1.55;;;;;;;16.06;69.07;99403.44;5078054;28;20048;-79
2023/03/13 11:53:35;;;;;;;3.65;1.50;;;;;;;16.02;67.92;99411.78;5082756;28;20106;-78